Jpo Tucana — A8RW4 — position and weather

sailwx.info

Track history (hours):
 
Tides and Currents Weather Stations Pressure Air Temp Water Temp Dewpoint Dewpoint Depression Visibility Wind Speed Wind Dir Waves Ship Positions

Jpo Tucana

Last reported at 2018-Jun-24 12:00 UTC. Time now 2018-Jun-25 09:28 UTC.
Position N 09°54' E 130°54'.

Length 269 m; draft 10 m.

Type: Cargo ship. MMSI: 636018278.

Wind from 230 at 6 knots

Barometer 1011.2 mb
Air temperature 30.0 ° C
Visibility: greater than 5.4 NM
Dewpoint 24.3 ° C
Water temperature 31.1 ° C

Date/timePositionNaut miles runAvg speedWind from/ knotsBaromVisibWave heightAir tempDewpointWater temp
2018-Jun-24 12:00N 09°54' E 130°54'20216.8 230 / 61011.2 5.4 30.024.331.1
2018-Jun-24 00:00N 12°18' E 128°30'21818.1 210 / 101011.4 5.4 30.524.930.8
2018-Jun-23 12:00N 14°54' E 125°54'14217.7 140 / 161011.0 5.4 29.024.030.8
2018-Jun-23 04:00N 16°36' E 124°12'39516.5 180 / 151010.710.8 31.025.431.0
2018-Jun-22 04:00N 20°30' E 118°36'   210 / 181009.210.8 29.024.829.0
2018-Jun-19 09:28N 23°20' E 117°58'818.4
2018-Jun-19 09:01N 23°26' E 118°04'918.2
2018-Jun-19 08:30N 23°32' E 118°12'47415.8
2018-Jun-18 02:33N 30°33' E 122°16'511.0
2018-Jun-18 02:03N 30°34' E 122°10'510.4
2018-Jun-18 01:35N 30°36' E 122°05'0 0.0
2018-Jun-17 21:53N 30°37' E 122°05'44411.0
2018-Jun-16 05:37N 35°03' E 129°07'213.7
2018-Jun-16 05:30N 35°05' E 129°06'1 2.6
2018-Jun-16 05:00N 35°06' E 129°06'0 0.1
2018-Jun-16 04:28N 35°06' E 129°06'0 0.0
2018-Jun-16 03:58N 35°06' E 129°06'0 0.0
2018-Jun-16 03:28N 35°06' E 129°06'0 0.0
2018-Jun-16 02:58N 35°06' E 129°06'0 0.0
2018-Jun-16 02:28N 35°06' E 129°06'0 0.0
2018-Jun-16 01:58N 35°06' E 129°06'0 0.0
2018-Jun-16 01:28N 35°06' E 129°06'0 0.0
2018-Jun-16 00:58N 35°06' E 129°06'0 0.0
2018-Jun-16 00:28N 35°06' E 129°06'0 0.0
2018-Jun-15 23:58N 35°06' E 129°06'0 0.0
2018-Jun-15 23:28N 35°06' E 129°06'0 0.0
2018-Jun-15 22:58N 35°06' E 129°06'0 0.0
2018-Jun-15 22:25N 35°06' E 129°06'0 0.0
2018-Jun-15 21:58N 35°06' E 129°06'0 0.0
2018-Jun-15 21:28N 35°06' E 129°06'0 0.0
2018-Jun-15 20:58N 35°06' E 129°06'0 0.0
2018-Jun-15 20:28N 35°06' E 129°06'0 0.0
2018-Jun-15 19:49N 35°06' E 129°06'0 0.0
2018-Jun-15 19:28N 35°06' E 129°06'0 0.0
2018-Jun-15 18:58N 35°06' E 129°06'0 0.0
2018-Jun-15 18:28N 35°06' E 129°06'0 0.0
2018-Jun-15 17:58N 35°06' E 129°06'0 0.0
2018-Jun-15 17:28N 35°06' E 129°06'0 0.0
2018-Jun-15 16:58N 35°06' E 129°06'0 0.0
2018-Jun-15 16:28N 35°06' E 129°06'0 0.0
2018-Jun-15 15:58N 35°06' E 129°06'0 0.0
2018-Jun-15 15:28N 35°06' E 129°06'0 0.0
2018-Jun-15 14:58N 35°06' E 129°06'0 0.0
2018-Jun-15 14:28N 35°06' E 129°06'0 0.0
2018-Jun-15 13:58N 35°06' E 129°06'0 0.0
2018-Jun-15 13:28N 35°06' E 129°06'0 0.0
2018-Jun-15 12:58N 35°06' E 129°06'0 0.0
2018-Jun-15 12:28N 35°06' E 129°06'0 0.6
2018-Jun-15 12:00N 35°06' E 129°06'4 7.3
2018-Jun-15 11:30N 35°03' E 129°08'510.2
2018-Jun-15 10:58N 35°01' E 129°02'7 5.4
2018-Jun-15 09:37N 34°59' E 129°11'28515.6
2018-Jun-14 15:21N 33°39' E 134°42'1220.5
2018-Jun-14 14:45N 33°48' E 134°52'520.4
2018-Jun-14 14:29N 33°53' E 134°54'1020.5
2018-Jun-14 14:00N 34°03' E 134°56'917.1
2018-Jun-14 13:30N 34°11' E 134°58'713.3
2018-Jun-14 13:00N 34°18' E 134°59'816.3
2018-Jun-14 12:30N 34°25' E 135°03'1019.2
2018-Jun-14 12:00N 34°32' E 135°11'  
Track history (hours):
 
Tides and Currents Weather Stations Pressure Air Temp Water Temp Dewpoint Dewpoint Depression Visibility Wind Speed Wind Dir Waves Ship Positions

Jpo Tucana

Last reported at 2018-Jun-24 12:00 UTC. Time now 2018-Jun-25 09:28 UTC.
Position N 09°54' E 130°54'.

Length 269 m; draft 10 m.

Type: Cargo ship. MMSI: 636018278.

Wind from 230 at 6 knots

Barometer 1011.2 mb
Air temperature 30.0 ° C
Visibility: greater than 5.4 NM
Dewpoint 24.3 ° C
Water temperature 31.1 ° C

Date/timePositionNaut miles runAvg speedWind from/ knotsBaromVisibWave heightAir tempDewpointWater temp
2018-Jun-24 12:00N 09°54' E 130°54'20216.8 230 / 61011.2 5.4 30.024.331.1
2018-Jun-24 00:00N 12°18' E 128°30'21818.1 210 / 101011.4 5.4 30.524.930.8
2018-Jun-23 12:00N 14°54' E 125°54'14217.7 140 / 161011.0 5.4 29.024.030.8
2018-Jun-23 04:00N 16°36' E 124°12'39516.5 180 / 151010.710.8 31.025.431.0
2018-Jun-22 04:00N 20°30' E 118°36'   210 / 181009.210.8 29.024.829.0
2018-Jun-19 09:28N 23°20' E 117°58'818.4
2018-Jun-19 09:01N 23°26' E 118°04'918.2
2018-Jun-19 08:30N 23°32' E 118°12'47415.8
2018-Jun-18 02:33N 30°33' E 122°16'511.0
2018-Jun-18 02:03N 30°34' E 122°10'510.4
2018-Jun-18 01:35N 30°36' E 122°05'0 0.0
2018-Jun-17 21:53N 30°37' E 122°05'44411.0
2018-Jun-16 05:37N 35°03' E 129°07'213.7
2018-Jun-16 05:30N 35°05' E 129°06'1 2.6
2018-Jun-16 05:00N 35°06' E 129°06'0 0.1
2018-Jun-16 04:28N 35°06' E 129°06'0 0.0
2018-Jun-16 03:58N 35°06' E 129°06'0 0.0
2018-Jun-16 03:28N 35°06' E 129°06'0 0.0
2018-Jun-16 02:58N 35°06' E 129°06'0 0.0
2018-Jun-16 02:28N 35°06' E 129°06'0 0.0
2018-Jun-16 01:58N 35°06' E 129°06'0 0.0
2018-Jun-16 01:28N 35°06' E 129°06'0 0.0
2018-Jun-16 00:58N 35°06' E 129°06'0 0.0
2018-Jun-16 00:28N 35°06' E 129°06'0 0.0
2018-Jun-15 23:58N 35°06' E 129°06'0 0.0
2018-Jun-15 23:28N 35°06' E 129°06'0 0.0
2018-Jun-15 22:58N 35°06' E 129°06'0 0.0
2018-Jun-15 22:25N 35°06' E 129°06'0 0.0
2018-Jun-15 21:58N 35°06' E 129°06'0 0.0
2018-Jun-15 21:28N 35°06' E 129°06'0 0.0
2018-Jun-15 20:58N 35°06' E 129°06'0 0.0
2018-Jun-15 20:28N 35°06' E 129°06'0 0.0
2018-Jun-15 19:49N 35°06' E 129°06'0 0.0
2018-Jun-15 19:28N 35°06' E 129°06'0 0.0
2018-Jun-15 18:58N 35°06' E 129°06'0 0.0
2018-Jun-15 18:28N 35°06' E 129°06'0 0.0
2018-Jun-15 17:58N 35°06' E 129°06'0 0.0
2018-Jun-15 17:28N 35°06' E 129°06'0 0.0
2018-Jun-15 16:58N 35°06' E 129°06'0 0.0
2018-Jun-15 16:28N 35°06' E 129°06'0 0.0
2018-Jun-15 15:58N 35°06' E 129°06'0 0.0
2018-Jun-15 15:28N 35°06' E 129°06'0 0.0
2018-Jun-15 14:58N 35°06' E 129°06'0 0.0
2018-Jun-15 14:28N 35°06' E 129°06'0 0.0
2018-Jun-15 13:58N 35°06' E 129°06'0 0.0
2018-Jun-15 13:28N 35°06' E 129°06'0 0.0
2018-Jun-15 12:58N 35°06' E 129°06'0 0.0
2018-Jun-15 12:28N 35°06' E 129°06'0 0.6
2018-Jun-15 12:00N 35°06' E 129°06'4 7.3
2018-Jun-15 11:30N 35°03' E 129°08'510.2
2018-Jun-15 10:58N 35°01' E 129°02'7 5.4
2018-Jun-15 09:37N 34°59' E 129°11'28515.6
2018-Jun-14 15:21N 33°39' E 134°42'1220.5
2018-Jun-14 14:45N 33°48' E 134°52'520.4
2018-Jun-14 14:29N 33°53' E 134°54'1020.5
2018-Jun-14 14:00N 34°03' E 134°56'917.1
2018-Jun-14 13:30N 34°11' E 134°58'713.3
2018-Jun-14 13:00N 34°18' E 134°59'816.3
2018-Jun-14 12:30N 34°25' E 135°03'1019.2
2018-Jun-14 12:00N 34°32' E 135°11'  

Dump ship's entire track history